createdAt,value
2023-05-14T00:02:40.496Z,8.93
2023-05-14T00:05:42.079Z,8.38
2023-05-14T00:08:43.574Z,7.68
2023-05-14T00:11:46.020Z,9.38
2023-05-14T00:14:47.566Z,7.75
2023-05-14T00:17:49.197Z,9.38
2023-05-14T00:20:54.588Z,8.75
2023-05-14T00:23:56.460Z,10.80
2023-05-14T00:26:57.981Z,12.73
2023-05-14T00:29:59.597Z,10.07
2023-05-14T00:33:01.322Z,8.63
2023-05-14T00:36:04.106Z,9.77
2023-05-14T00:39:05.688Z,9.10
2023-05-14T00:42:07.323Z,9.73
2023-05-14T00:45:09.275Z,13.27
2023-05-14T00:48:10.837Z,9.02
2023-05-14T00:51:12.457Z,9.18
2023-05-14T00:54:15.694Z,12.80
2023-05-14T00:57:18.939Z,11.50
2023-05-14T01:00:20.986Z,9.27
2023-05-14T01:03:23.098Z,9.35
2023-05-14T01:06:32.553Z,9.38
2023-05-14T01:09:37.144Z,10.35
2023-05-14T01:12:57.091Z,9.32
2023-05-14T01:16:00.568Z,11.63
2023-05-14T01:19:05.780Z,9.65
2023-05-14T01:22:07.651Z,8.00
2023-05-14T01:25:09.558Z,8.88
2023-05-14T01:28:28.078Z,10.75
2023-05-14T01:31:33.697Z,9.15
2023-05-14T01:34:36.704Z,7.75
2023-05-14T01:37:40.033Z,8.63
2023-05-14T01:40:42.922Z,8.57
2023-05-14T01:43:45.426Z,10.75
2023-05-14T01:46:47.070Z,11.50
2023-05-14T01:49:48.670Z,10.15
2023-05-14T01:52:53.200Z,10.18
2023-05-14T01:55:55.799Z,9.15
2023-05-14T01:58:57.364Z,10.40
2023-05-14T02:01:59.169Z,13.45
2023-05-14T02:05:00.953Z,9.10
2023-05-14T02:08:02.516Z,9.25
2023-05-14T02:11:04.112Z,10.40
2023-05-14T02:14:05.707Z,9.43
2023-05-14T02:17:07.383Z,9.52
2023-05-14T02:20:10.274Z,10.82
2023-05-14T02:23:11.866Z,8.80
2023-05-14T02:26:13.415Z,10.27
2023-05-14T02:29:15.034Z,8.77
2023-05-14T02:32:16.641Z,13.77
2023-05-14T02:35:18.265Z,14.52
2023-05-14T02:38:20.474Z,15.63
2023-05-14T02:41:22.019Z,15.18
2023-05-14T02:44:23.535Z,13.68
2023-05-14T02:47:25.112Z,13.23
2023-05-14T02:50:26.742Z,14.55
2023-05-14T02:53:28.363Z,14.18
2023-05-14T02:56:29.917Z,15.25
2023-05-14T02:59:31.848Z,11.50
2023-05-14T03:02:34.633Z,12.90
2023-05-14T03:05:36.731Z,15.18
2023-05-14T03:08:38.321Z,20.25
2023-05-14T03:11:40.237Z,20.08
2023-05-14T03:14:41.792Z,16.98
2023-05-14T03:17:43.518Z,12.65
2023-05-14T03:20:45.100Z,14.07
2023-05-14T03:23:46.890Z,13.73
2023-05-14T03:26:48.433Z,14.43
2023-05-14T03:29:49.997Z,25.15
2023-05-14T03:32:51.771Z,15.82
2023-05-14T03:35:53.355Z,14.93
2023-05-14T03:38:56.105Z,17.10
2023-05-14T03:41:58.847Z,16.25
2023-05-14T03:45:00.633Z,16.75
2023-05-14T03:48:02.372Z,15.45
2023-05-14T03:51:05.147Z,15.85
2023-05-14T03:54:06.977Z,12.93
2023-05-14T03:57:08.573Z,14.57
2023-05-14T04:00:10.881Z,14.65
2023-05-14T04:03:21.282Z,14.23
2023-05-14T04:06:23.826Z,14.02
2023-05-14T04:09:25.393Z,12.75
2023-05-14T04:12:27.026Z,13.75
2023-05-14T04:15:29.185Z,13.77
2023-05-14T04:18:34.935Z,15.68
2023-05-14T04:21:36.544Z,12.93
2023-05-14T04:24:38.085Z,14.27
2023-05-14T04:27:40.066Z,14.60
2023-05-14T04:30:41.870Z,12.77
2023-05-14T04:33:43.420Z,13.25
2023-05-14T04:36:44.952Z,13.45
2023-05-14T04:39:47.657Z,16.63
2023-05-14T04:42:49.337Z,13.82
2023-05-14T04:45:52.375Z,14.70
2023-05-14T04:48:53.948Z,11.98
2023-05-14T04:51:55.496Z,12.55
2023-05-14T04:54:57.121Z,10.52
2023-05-14T04:57:58.655Z,11.90
2023-05-14T05:01:00.248Z,11.90
2023-05-14T05:04:02.328Z,12.35
2023-05-14T05:07:04.057Z,11.40
2023-05-14T05:10:06.197Z,13.82
2023-05-14T05:13:07.752Z,13.10
2023-05-14T05:16:09.284Z,13.45
2023-05-14T05:19:10.918Z,11.65
2023-05-14T05:22:12.595Z,13.00
2023-05-14T05:25:14.162Z,12.98
2023-05-14T05:28:16.082Z,11.75
2023-05-14T05:31:19.702Z,11.60
2023-05-14T05:34:21.652Z,12.43
2023-05-14T05:37:23.188Z,10.93
2023-05-14T05:40:24.938Z,11.70
2023-05-14T05:43:28.490Z,11.60
2023-05-14T05:49:31.702Z,10.32
2023-05-14T05:52:33.341Z,11.60
2023-05-14T05:55:34.979Z,11.77
2023-05-14T05:58:37.093Z,12.65
2023-05-14T06:01:40.648Z,11.32
2023-05-14T06:04:42.533Z,11.50
2023-05-14T06:07:44.132Z,11.80
2023-05-14T06:10:48.704Z,12.82
2023-05-14T06:13:52.733Z,12.82
2023-05-14T06:16:56.820Z,12.02
2023-05-14T06:20:01.323Z,10.20
2023-05-14T06:23:04.582Z,11.13
2023-05-14T06:26:06.351Z,11.82
2023-05-14T06:29:08.063Z,11.90
2023-05-14T06:32:10.319Z,10.50
2023-05-14T06:35:11.975Z,8.98
2023-05-14T06:38:13.487Z,9.13
2023-05-14T06:41:15.028Z,11.68
2023-05-14T06:44:18.916Z,8.05
2023-05-14T06:47:20.762Z,10.48
2023-05-14T06:50:22.534Z,8.55
2023-05-14T06:53:24.342Z,7.93
2023-05-14T06:56:25.929Z,7.03
2023-05-14T06:59:27.582Z,10.25
2023-05-14T07:02:29.253Z,8.40
2023-05-14T07:05:30.938Z,9.38
2023-05-14T07:08:32.649Z,8.32
2023-05-14T07:11:34.259Z,6.32
2023-05-14T07:14:35.788Z,8.23
2023-05-14T07:17:37.773Z,5.93
2023-05-14T07:20:39.455Z,6.10
2023-05-14T07:23:41.265Z,5.75
2023-05-14T07:26:42.885Z,6.72
2023-05-14T07:29:44.419Z,6.03
2023-05-14T07:32:46.037Z,5.68
2023-05-14T07:35:47.718Z,5.13
2023-05-14T07:38:49.301Z,5.50
2023-05-14T07:41:51.328Z,10.00
2023-05-14T07:44:52.911Z,6.65
2023-05-14T07:47:54.819Z,55.72
2023-05-14T07:50:56.581Z,28.90
2023-05-14T07:53:58.172Z,13.93
2023-05-14T07:56:59.720Z,6.80
2023-05-14T08:00:01.366Z,6.35
2023-05-14T08:03:03.190Z,7.25
2023-05-14T08:06:05.476Z,5.22
2023-05-14T08:09:06.977Z,5.47
2023-05-14T08:12:09.003Z,5.22
2023-05-14T08:15:11.134Z,4.07
2023-05-14T08:18:12.790Z,4.43
2023-05-14T08:21:14.413Z,4.90
2023-05-14T08:24:15.987Z,4.25
2023-05-14T08:27:17.570Z,5.35
2023-05-14T08:30:19.244Z,4.25
2023-05-14T08:33:20.852Z,4.70
2023-05-14T08:36:22.481Z,3.10
2023-05-14T08:39:24.589Z,3.15
2023-05-14T08:42:28.546Z,4.87
2023-05-14T08:45:34.063Z,2.80
2023-05-14T08:48:37.785Z,5.38
2023-05-14T08:51:40.411Z,5.32
2023-05-14T08:54:41.986Z,5.90
2023-05-14T08:57:43.935Z,3.25
2023-05-14T09:00:45.643Z,3.63
2023-05-14T09:03:47.982Z,2.72
2023-05-14T09:06:51.351Z,4.18
2023-05-14T09:09:53.708Z,3.55
2023-05-14T09:12:55.293Z,2.92
2023-05-14T09:15:57.424Z,2.10
2023-05-14T09:18:59.235Z,2.17
2023-05-14T09:22:00.911Z,2.45
2023-05-14T09:25:09.263Z,2.03
2023-05-14T09:28:10.961Z,2.00
2023-05-14T09:31:12.586Z,2.28
2023-05-14T09:34:24.380Z,2.20
2023-05-14T09:37:28.258Z,2.08
2023-05-14T09:40:30.006Z,2.72
2023-05-14T09:43:31.727Z,2.60
2023-05-14T09:46:33.281Z,2.42
2023-05-14T09:49:35.332Z,2.15
2023-05-14T09:52:37.270Z,2.08
2023-05-14T09:55:39.646Z,2.20
2023-05-14T09:58:41.162Z,3.03
2023-05-14T10:01:44.330Z,2.80
2023-05-14T10:04:46.891Z,1.90
2023-05-14T10:07:51.002Z,2.65
2023-05-14T10:10:54.897Z,2.30
2023-05-14T10:14:02.230Z,2.30
2023-05-14T10:17:06.021Z,2.08
2023-05-14T10:20:10.071Z,2.25
2023-05-14T10:23:11.983Z,2.42
2023-05-14T10:26:14.043Z,2.47
2023-05-14T10:29:15.669Z,2.23
2023-05-14T10:32:20.874Z,2.80
2023-05-14T10:35:25.344Z,2.92
2023-05-14T10:38:29.175Z,2.33
2023-05-14T10:41:33.995Z,2.30
2023-05-14T10:44:35.859Z,1.90
2023-05-14T10:47:39.570Z,2.40
2023-05-14T10:50:42.015Z,2.50
2023-05-14T10:53:43.936Z,2.33
2023-05-14T10:56:49.732Z,3.00
2023-05-14T10:59:56.721Z,2.72
2023-05-14T11:02:58.430Z,2.42
2023-05-14T11:06:03.581Z,2.38
2023-05-14T11:09:06.202Z,2.28
2023-05-14T11:12:08.684Z,2.97
2023-05-14T11:15:12.156Z,2.50
2023-05-14T11:18:14.057Z,2.50
2023-05-14T11:21:17.448Z,3.00
2023-05-14T11:24:19.071Z,2.67
2023-05-14T11:27:23.024Z,2.53
2023-05-14T11:30:24.967Z,2.72
2023-05-14T11:33:27.853Z,2.72
2023-05-14T11:36:29.406Z,2.50
2023-05-14T11:39:33.015Z,2.85
2023-05-14T11:42:34.615Z,2.50
2023-05-14T11:45:36.898Z,1.95
2023-05-14T11:48:38.444Z,2.42
2023-05-14T11:51:40.005Z,2.35
2023-05-14T11:54:43.433Z,2.25
2023-05-14T11:57:45.192Z,2.45
2023-05-14T12:00:50.286Z,2.47
2023-05-14T12:03:52.002Z,2.65
2023-05-14T12:06:53.767Z,2.63
2023-05-14T12:10:00.305Z,2.97
2023-05-14T12:13:07.047Z,2.13
2023-05-14T12:16:09.018Z,2.35
2023-05-14T12:19:14.022Z,3.28
2023-05-14T12:22:20.641Z,2.88
2023-05-14T12:25:22.187Z,2.35
2023-05-14T12:28:23.723Z,1.95
2023-05-14T12:31:30.203Z,2.55
2023-05-14T12:34:32.113Z,2.58
2023-05-14T12:37:34.051Z,2.97
2023-05-14T12:40:36.419Z,3.57
2023-05-14T12:43:37.957Z,2.60
2023-05-14T12:46:39.615Z,2.65
2023-05-14T12:49:41.263Z,2.38
2023-05-14T12:52:42.809Z,3.25
2023-05-14T12:55:44.545Z,2.97
2023-05-14T12:58:49.071Z,2.47
2023-05-14T13:01:50.718Z,2.60
2023-05-14T13:04:52.292Z,2.88
2023-05-14T13:07:54.333Z,2.20
2023-05-14T13:10:56.676Z,2.90
2023-05-14T13:13:59.335Z,2.50
2023-05-14T13:17:00.989Z,2.20
2023-05-14T13:20:02.789Z,2.20
2023-05-14T13:23:04.735Z,2.50
2023-05-14T13:26:06.409Z,2.60
2023-05-14T13:29:07.987Z,3.50
2023-05-14T13:32:09.579Z,2.42
2023-05-14T13:35:11.438Z,2.50
2023-05-14T13:38:12.985Z,2.40
2023-05-14T13:41:14.594Z,3.78
2023-05-14T13:44:16.249Z,2.15
2023-05-14T13:47:18.028Z,2.35
2023-05-14T13:50:19.682Z,2.60
2023-05-14T13:53:23.257Z,2.53
2023-05-14T13:56:24.792Z,4.35
2023-05-14T13:59:26.455Z,2.20
2023-05-14T14:02:28.053Z,4.70
2023-05-14T14:05:29.699Z,2.85
2023-05-14T14:08:31.322Z,2.50
2023-05-14T14:11:33.064Z,2.70
2023-05-14T14:14:34.666Z,8.25
2023-05-14T14:17:36.764Z,4.38
2023-05-14T14:20:38.507Z,3.63
2023-05-14T14:23:40.052Z,4.32
2023-05-14T14:26:41.604Z,1.65
2023-05-14T14:29:43.165Z,2.17
2023-05-14T14:32:46.156Z,3.15
2023-05-14T14:35:47.903Z,2.38
2023-05-14T14:38:49.473Z,3.70
2023-05-14T14:41:51.577Z,4.65
2023-05-14T14:44:53.101Z,3.17
2023-05-14T14:48:26.531Z,3.72
2023-05-14T14:51:28.199Z,2.72
2023-05-14T14:54:29.736Z,3.15
2023-05-14T14:57:31.397Z,4.70
2023-05-14T15:00:33.315Z,6.13
2023-05-14T15:03:35.297Z,3.47
2023-05-14T15:06:36.991Z,3.17
2023-05-14T15:09:38.624Z,3.42
2023-05-14T15:12:40.230Z,3.05
2023-05-14T15:15:41.876Z,3.60
2023-05-14T15:18:43.523Z,3.10
2023-05-14T15:21:45.565Z,4.10
2023-05-14T15:24:47.489Z,2.63
2023-05-14T15:27:49.485Z,3.45
2023-05-14T15:30:51.114Z,2.80
2023-05-14T15:33:54.001Z,3.22
2023-05-14T15:39:57.001Z,4.20
2023-05-14T15:42:58.611Z,2.85
2023-05-14T15:46:00.519Z,3.00
2023-05-14T15:49:02.109Z,4.65
2023-05-14T15:52:04.107Z,4.97
2023-05-14T15:55:06.285Z,4.73
2023-05-14T15:58:07.942Z,3.00
2023-05-14T16:01:09.488Z,2.53
2023-05-14T16:04:11.155Z,2.33
2023-05-14T16:07:13.355Z,2.58
2023-05-14T16:10:15.006Z,2.45
2023-05-14T16:13:16.634Z,2.90
2023-05-14T16:16:19.548Z,3.00
2023-05-14T16:22:22.898Z,2.67
2023-05-14T16:25:24.597Z,2.20
2023-05-14T16:28:26.174Z,3.90
2023-05-14T16:31:27.743Z,3.70
2023-05-14T16:34:29.395Z,4.40
2023-05-14T16:37:31.289Z,3.60
2023-05-14T16:40:32.940Z,4.03
2023-05-14T16:43:34.499Z,4.03
2023-05-14T16:46:36.245Z,2.45
2023-05-14T16:49:37.842Z,2.42
2023-05-14T16:52:39.426Z,3.10
2023-05-14T16:55:41.027Z,2.60
2023-05-14T16:58:42.560Z,2.45
2023-05-14T17:01:44.562Z,2.53
2023-05-14T17:04:46.219Z,2.57
2023-05-14T17:07:47.861Z,2.53
2023-05-14T17:10:49.430Z,2.50
2023-05-14T17:13:54.001Z,2.67
2023-05-14T17:16:55.837Z,2.95
2023-05-14T17:19:57.439Z,3.05
2023-05-14T17:22:59.031Z,3.03
2023-05-14T17:26:00.546Z,2.63
2023-05-14T17:29:02.248Z,3.40
2023-05-14T17:32:04.094Z,3.55
2023-05-14T17:35:06.006Z,3.00
2023-05-14T17:38:07.652Z,4.10
2023-05-14T17:41:13.171Z,4.15
2023-05-14T17:44:22.484Z,3.17
2023-05-14T17:47:24.248Z,4.40
2023-05-14T17:50:26.144Z,3.65
2023-05-14T17:53:28.357Z,3.53
2023-05-14T17:56:30.415Z,3.57
2023-05-14T17:59:32.345Z,2.97
2023-05-14T18:02:35.941Z,2.63
2023-05-14T18:05:37.820Z,4.15
2023-05-14T18:08:39.338Z,3.08
2023-05-14T18:11:40.933Z,3.25
2023-05-14T18:14:44.831Z,2.70
2023-05-14T18:17:47.386Z,2.45
2023-05-14T18:20:49.487Z,2.80
2023-05-14T18:23:51.029Z,4.30
2023-05-14T18:26:52.655Z,2.53
2023-05-14T18:29:54.572Z,2.40
2023-05-14T18:32:56.374Z,3.33
2023-05-14T18:35:58.182Z,2.95
2023-05-14T18:38:59.730Z,2.50
2023-05-14T18:42:01.272Z,2.83
2023-05-14T18:45:04.195Z,3.97
2023-05-14T18:51:07.730Z,3.47
2023-05-14T18:54:09.293Z,3.58
2023-05-14T18:57:11.062Z,2.92
2023-05-14T19:00:13.143Z,4.57
2023-05-14T19:03:15.128Z,3.50
2023-05-14T19:06:16.765Z,4.35
2023-05-14T19:09:21.094Z,4.32
2023-05-14T19:12:22.719Z,3.00
2023-05-14T19:15:24.861Z,3.92
2023-05-14T19:18:28.785Z,4.63
2023-05-14T19:21:30.432Z,3.33
2023-05-14T19:24:35.102Z,3.80
2023-05-14T19:27:38.041Z,4.32
2023-05-14T19:30:39.637Z,4.13
2023-05-14T19:33:41.277Z,4.55
2023-05-14T19:36:42.899Z,3.50
2023-05-14T19:39:44.516Z,4.47
2023-05-14T19:42:46.022Z,5.50
2023-05-14T19:45:47.604Z,4.15
2023-05-14T19:48:49.164Z,3.30
2023-05-14T19:51:50.754Z,3.83
2023-05-14T19:54:52.565Z,3.80
2023-05-14T19:57:54.187Z,3.53
2023-05-14T20:00:56.760Z,3.95
2023-05-14T20:03:58.369Z,3.85
2023-05-14T20:06:59.957Z,4.15
2023-05-14T20:10:01.673Z,4.57
2023-05-14T20:13:03.320Z,4.50
2023-05-14T20:16:05.095Z,4.32
2023-05-14T20:19:07.686Z,4.57
2023-05-14T20:22:09.351Z,6.18
2023-05-14T20:25:11.003Z,4.63
2023-05-14T20:28:12.558Z,5.72
2023-05-14T20:31:14.179Z,4.03
2023-05-14T20:34:16.059Z,4.60
2023-05-14T20:37:19.766Z,4.50
2023-05-14T20:40:21.534Z,4.10
2023-05-14T20:43:23.383Z,4.88
2023-05-14T20:46:25.698Z,5.03
2023-05-14T20:49:27.802Z,4.55
2023-05-14T20:52:29.389Z,4.78
2023-05-14T20:55:30.987Z,4.50
2023-05-14T20:58:32.719Z,5.15
2023-05-14T21:01:34.290Z,5.25
2023-05-14T21:04:36.159Z,4.78
2023-05-14T21:07:39.285Z,5.03
2023-05-14T21:13:44.071Z,8.23
2023-05-14T21:16:45.813Z,7.30
2023-05-14T21:19:47.405Z,5.57
2023-05-14T21:22:48.963Z,7.22
2023-05-14T21:25:51.055Z,5.32
2023-05-14T21:28:52.609Z,5.03
2023-05-14T21:31:54.205Z,7.15
2023-05-14T21:34:56.183Z,5.25
2023-05-14T21:37:57.842Z,6.40
2023-05-14T21:40:59.635Z,7.93
2023-05-14T21:44:01.252Z,6.03
2023-05-14T21:47:03.648Z,6.32
2023-05-14T21:50:05.712Z,5.87
2023-05-14T21:53:07.350Z,5.55
2023-05-14T21:56:08.909Z,5.80
2023-05-14T21:59:11.154Z,9.57
2023-05-14T22:02:12.907Z,6.30
2023-05-14T22:05:14.589Z,7.63
2023-05-14T22:08:17.578Z,5.60
2023-05-14T22:11:19.172Z,6.40
2023-05-14T22:14:20.742Z,6.45
2023-05-14T22:17:22.594Z,6.97
2023-05-14T22:20:24.389Z,7.13
2023-05-14T22:23:25.904Z,7.57
2023-05-14T22:26:27.442Z,7.43
2023-05-14T22:29:29.075Z,6.40
2023-05-14T22:32:30.667Z,6.32
2023-05-14T22:35:32.272Z,6.97
2023-05-14T22:38:34.237Z,7.60
2023-05-14T22:41:35.923Z,6.45
2023-05-14T22:44:37.510Z,6.40
2023-05-14T22:47:39.161Z,5.80
2023-05-14T22:50:40.812Z,10.45
2023-05-14T22:53:42.368Z,6.63
2023-05-14T22:56:44.342Z,6.20
2023-05-14T22:59:45.873Z,9.10
2023-05-14T23:02:47.764Z,8.80
2023-05-14T23:05:49.592Z,11.02
2023-05-14T23:08:51.205Z,7.65
2023-05-14T23:11:52.794Z,7.70
2023-05-14T23:14:54.359Z,7.82
2023-05-14T23:17:56.051Z,6.40
2023-05-14T23:20:58.018Z,6.63
2023-05-14T23:23:59.559Z,8.43
2023-05-14T23:27:01.208Z,7.75
2023-05-14T23:30:03.909Z,8.25
2023-05-14T23:33:05.565Z,9.05
2023-05-14T23:36:07.748Z,8.15
2023-05-14T23:39:09.415Z,7.53
2023-05-14T23:42:10.956Z,9.18
2023-05-14T23:45:13.328Z,8.10
2023-05-14T23:48:14.911Z,7.33
2023-05-14T23:51:16.470Z,9.82
2023-05-14T23:54:18.048Z,7.13
2023-05-14T23:57:19.575Z,5.93
